createdAt,value
2023-05-08T00:03:41.416Z,101705.98
2023-05-08T00:06:09.925Z,101699.71
2023-05-08T00:08:37.995Z,101699.01
2023-05-08T00:11:06.610Z,101703.86
2023-05-08T00:13:35.336Z,101699.39
2023-05-08T00:16:03.625Z,101696.52
2023-05-08T00:18:31.871Z,101696.36
2023-05-08T00:21:00.059Z,101700.30
2023-05-08T00:23:28.352Z,101697.63
2023-05-08T00:25:56.648Z,101697.45
2023-05-08T00:28:24.911Z,101697.65
2023-05-08T00:30:52.974Z,101697.46
2023-05-08T00:33:21.297Z,101694.42
2023-05-08T00:35:49.521Z,101693.17
2023-05-08T00:38:17.657Z,101692.64
2023-05-08T00:40:46.013Z,101693.72
2023-05-08T00:43:14.095Z,101697.13
2023-05-08T00:45:42.616Z,101696.06
2023-05-08T00:48:10.964Z,101696.06
2023-05-08T00:50:39.436Z,101687.63
2023-05-08T00:53:07.548Z,101686.73
2023-05-08T00:55:36.358Z,101681.54
2023-05-08T00:58:06.527Z,101679.56
2023-05-08T01:00:34.937Z,101678.86
2023-05-08T01:03:04.868Z,101681.19
2023-05-08T01:05:33.808Z,101679.04
2023-05-08T01:08:02.117Z,101672.93
2023-05-08T01:10:47.236Z,101666.84
2023-05-08T01:13:40.876Z,101669.88
2023-05-08T01:16:35.623Z,101668.99
2023-05-08T01:19:22.466Z,101670.59
2023-05-08T01:22:01.065Z,101668.98
2023-05-08T01:24:57.250Z,101667.36
2023-05-08T01:28:09.468Z,101667.38
2023-05-08T01:31:08.363Z,101670.98
2023-05-08T01:34:34.319Z,101672.23
2023-05-08T01:37:10.155Z,101678.52
2023-05-08T01:39:56.116Z,101672.77
2023-05-08T01:42:53.922Z,101673.88
2023-05-08T01:45:31.334Z,101669.77
2023-05-08T01:48:10.827Z,101669.94
2023-05-08T01:50:52.676Z,101671.38
2023-05-08T01:53:26.145Z,101667.08
2023-05-08T01:56:00.405Z,101668.69
2023-05-08T01:58:30.867Z,101670.67
2023-05-08T02:01:02.363Z,101672.11
2023-05-08T02:03:34.174Z,101670.67
2023-05-08T02:06:03.510Z,101674.25
2023-05-08T02:08:33.649Z,101673.17
2023-05-08T02:11:04.292Z,101671.92
2023-05-08T02:13:35.442Z,101669.05
2023-05-08T02:16:05.460Z,101668.16
2023-05-08T02:18:35.961Z,101668.89
2023-05-08T02:21:05.694Z,101667.63
2023-05-08T02:23:35.152Z,101667.45
2023-05-08T02:26:04.795Z,101669.59
2023-05-08T02:28:34.987Z,101672.27
2023-05-08T02:31:05.399Z,101673.00
2023-05-08T02:33:34.027Z,101670.27
2023-05-08T02:36:04.312Z,101668.66
2023-05-08T02:38:34.195Z,101676.72
2023-05-08T02:41:06.677Z,101677.25
2023-05-08T02:43:35.706Z,101680.30
2023-05-08T02:46:09.884Z,101681.37
2023-05-08T02:48:59.891Z,101681.19
2023-05-08T02:51:47.341Z,101679.92
2023-05-08T02:54:24.451Z,101680.47
2023-05-08T02:57:03.638Z,101676.15
2023-05-08T02:59:39.240Z,101670.95
2023-05-08T03:02:11.616Z,101674.01
2023-05-08T03:04:55.711Z,101679.38
2023-05-08T03:07:28.380Z,101679.02
2023-05-08T03:10:05.523Z,101682.95
2023-05-08T03:12:41.428Z,101683.12
2023-05-08T03:15:28.484Z,101684.91
2023-05-08T03:18:03.249Z,101687.60
2023-05-08T03:20:37.445Z,101684.36
2023-05-08T03:23:08.697Z,101678.79
2023-05-08T03:25:40.305Z,101673.95
2023-05-08T03:28:10.984Z,101670.90
2023-05-08T03:30:41.948Z,101670.71
2023-05-08T03:33:12.779Z,101668.40
2023-05-08T03:35:42.343Z,101673.58
2023-05-08T03:38:10.575Z,101682.36
2023-05-08T03:40:39.587Z,101686.30
2023-05-08T03:43:08.493Z,101690.94
2023-05-08T03:45:39.493Z,101698.83
2023-05-08T03:48:10.062Z,101697.21
2023-05-08T03:50:39.074Z,101695.59
2023-05-08T03:53:07.250Z,101691.63
2023-05-08T03:55:36.318Z,101691.98
2023-05-08T03:58:29.728Z,101694.67
2023-05-08T04:01:23.347Z,101690.71
2023-05-08T04:04:10.295Z,101689.09
2023-05-08T04:06:57.327Z,101681.74
2023-05-08T04:10:09.756Z,101681.20
2023-05-08T04:12:54.078Z,101684.23
2023-05-08T04:15:27.227Z,101684.77
2023-05-08T04:18:11.261Z,101680.27
2023-05-08T04:20:42.303Z,101683.67
2023-05-08T04:23:15.819Z,101684.70
2023-05-08T04:25:45.940Z,101684.14
2023-05-08T04:28:15.310Z,101682.36
2023-05-08T04:30:44.539Z,101686.11
2023-05-08T04:33:14.098Z,101684.31
2023-05-08T04:35:42.716Z,101686.80
2023-05-08T04:38:11.002Z,101692.69
2023-05-08T04:40:39.146Z,101694.11
2023-05-08T04:43:07.366Z,101694.45
2023-05-08T04:45:36.353Z,101695.86
2023-05-08T04:48:04.833Z,101692.63
2023-05-08T04:50:32.900Z,101687.60
2023-05-08T04:53:01.287Z,101681.16
2023-05-08T04:55:29.353Z,101682.05
2023-05-08T04:57:57.438Z,101682.39
2023-05-08T05:00:25.686Z,101684.02
2023-05-08T05:02:54.345Z,101679.17
2023-05-08T05:05:24.162Z,101676.83
2023-05-08T05:07:52.812Z,101673.79
2023-05-08T05:10:21.023Z,101679.17
2023-05-08T05:12:49.394Z,101678.45
2023-05-08T05:15:17.678Z,101676.12
2023-05-08T05:17:45.741Z,101680.58
2023-05-08T05:20:15.545Z,101684.34
2023-05-08T05:22:43.808Z,101686.67
2023-05-08T05:25:12.119Z,101687.74
2023-05-08T05:27:40.640Z,101688.81
2023-05-08T05:30:08.999Z,101690.95
2023-05-08T05:32:37.148Z,101694.52
2023-05-08T05:35:06.815Z,101693.61
2023-05-08T05:37:35.019Z,101694.68
2023-05-08T05:40:03.754Z,101691.46
2023-05-08T05:42:31.916Z,101690.20
2023-05-08T05:44:59.979Z,101692.19
2023-05-08T05:47:28.294Z,101695.58
2023-05-08T05:49:58.255Z,101696.32
2023-05-08T05:52:26.344Z,101696.86
2023-05-08T05:54:54.591Z,101695.43
2023-05-08T05:57:23.439Z,101693.12
2023-05-08T05:59:52.637Z,101692.59
2023-05-08T06:02:21.698Z,101694.21
2023-05-08T06:04:52.129Z,101694.56
2023-05-08T06:07:20.272Z,101693.85
2023-05-08T06:09:48.275Z,101697.46
2023-05-08T06:12:16.391Z,101693.00
2023-05-08T06:14:45.056Z,101696.08
2023-05-08T06:17:13.253Z,101696.98
2023-05-08T06:19:42.129Z,101694.86
2023-05-08T06:22:10.204Z,101697.73
2023-05-08T06:24:38.445Z,101697.75
2023-05-08T06:27:06.964Z,101703.00
2023-05-08T06:29:37.194Z,101705.89
2023-05-08T06:32:05.472Z,101706.27
2023-05-08T06:34:33.835Z,101715.25
2023-05-08T06:37:01.876Z,101715.81
2023-05-08T06:39:30.112Z,101718.35
2023-05-08T06:41:58.690Z,101719.80
2023-05-08T06:44:26.819Z,101722.34
2023-05-08T06:46:54.954Z,101715.74
2023-05-08T06:49:23.515Z,101718.98
2023-05-08T06:51:51.685Z,101716.85
2023-05-08T06:54:20.047Z,101717.77
2023-05-08T06:56:48.919Z,101717.98
2023-05-08T06:59:17.059Z,101722.30
2023-05-08T07:01:45.165Z,101728.21
2023-05-08T07:04:14.050Z,101725.53
2023-05-08T07:06:42.292Z,101722.48
2023-05-08T07:09:10.546Z,101723.56
2023-05-08T07:11:38.767Z,101718.19
2023-05-08T07:14:07.301Z,101717.64
2023-05-08T07:16:36.004Z,101716.92
2023-05-08T07:19:04.263Z,101711.88
2023-05-08T07:21:32.419Z,101713.86
2023-05-08T07:24:00.514Z,101712.77
2023-05-08T07:26:29.149Z,101715.98
2023-05-08T07:28:57.335Z,101713.11
2023-05-08T07:31:25.586Z,101715.48
2023-05-08T07:33:54.357Z,101714.20
2023-05-08T07:36:22.555Z,101713.29
2023-05-08T07:38:50.702Z,101711.48
2023-05-08T07:41:19.424Z,101707.33
2023-05-08T07:43:47.609Z,101706.96
2023-05-08T07:46:19.535Z,101709.62
2023-05-08T07:48:47.881Z,101702.79
2023-05-08T07:51:16.058Z,101699.00
2023-05-08T07:53:45.268Z,101695.73
2023-05-08T07:56:13.491Z,101688.69
2023-05-08T07:58:41.559Z,101689.55
2023-05-08T08:01:09.927Z,101688.80
2023-05-08T08:03:38.731Z,101686.44
2023-05-08T08:06:07.266Z,101692.33
2023-05-08T08:08:36.104Z,101698.58
2023-05-08T08:11:04.222Z,101693.32
2023-05-08T08:13:32.611Z,101697.92
2023-05-08T08:16:01.393Z,101702.73
2023-05-08T08:18:29.696Z,101708.25
2023-05-08T08:20:57.725Z,101709.85
2023-05-08T08:23:25.919Z,101715.75
2023-05-08T08:25:54.043Z,101719.48
2023-05-08T08:28:23.383Z,101727.89
2023-05-08T08:30:52.935Z,101729.11
2023-05-08T08:33:21.618Z,101729.63
2023-05-08T08:35:49.796Z,101722.23
2023-05-08T08:38:18.617Z,101721.79
2023-05-08T08:40:47.302Z,101721.75
2023-05-08T08:43:15.559Z,101720.48
2023-05-08T08:45:43.716Z,101726.40
2023-05-08T08:48:13.211Z,101732.88
2023-05-08T08:50:43.746Z,101727.13
2023-05-08T08:53:22.189Z,101727.09
2023-05-08T08:55:52.319Z,101726.83
2023-05-08T08:58:33.553Z,101729.12
2023-05-08T09:01:03.176Z,101728.87
2023-05-08T09:03:34.430Z,101732.06
2023-05-08T09:06:03.259Z,101729.45
2023-05-08T09:08:32.376Z,101729.94
2023-05-08T09:11:02.500Z,101730.07
2023-05-08T09:13:31.259Z,101729.48
2023-05-08T09:16:00.526Z,101730.01
2023-05-08T09:18:29.969Z,101735.40
2023-05-08T09:20:59.048Z,101730.75
2023-05-08T09:23:28.322Z,101734.52
2023-05-08T09:25:57.149Z,101736.26
2023-05-08T09:28:26.552Z,101735.31
2023-05-08T09:30:59.612Z,101733.14
2023-05-08T09:33:29.419Z,101734.41
2023-05-08T09:35:58.097Z,101733.39
2023-05-08T09:38:37.905Z,101734.80
2023-05-08T09:41:11.356Z,101731.96
2023-05-08T09:43:40.169Z,101728.77
2023-05-08T09:46:34.780Z,101725.05
2023-05-08T09:49:03.779Z,101723.73
2023-05-08T09:51:32.447Z,101725.16
2023-05-08T09:54:00.608Z,101730.56
2023-05-08T09:56:47.356Z,101731.98
2023-05-08T09:59:45.022Z,101733.95
2023-05-08T10:02:16.000Z,101733.93
2023-05-08T10:04:44.232Z,101739.45
2023-05-08T10:07:12.584Z,101739.21
2023-05-08T10:09:57.390Z,101742.77
2023-05-08T10:12:26.960Z,101746.65
2023-05-08T10:14:56.013Z,101738.67
2023-05-08T10:17:28.118Z,101739.36
2023-05-08T10:19:59.702Z,101737.36
2023-05-08T10:22:28.662Z,101739.27
2023-05-08T10:24:59.209Z,101735.30
2023-05-08T10:27:59.957Z,101731.38
2023-05-08T10:30:31.094Z,101733.95
2023-05-08T10:33:03.360Z,101740.59
2023-05-08T10:35:31.759Z,101735.70
2023-05-08T10:38:00.542Z,101730.68
2023-05-08T10:40:28.706Z,101728.13
2023-05-08T10:42:58.804Z,101716.96
2023-05-08T10:45:27.585Z,101718.89
2023-05-08T10:48:24.178Z,101724.60
2023-05-08T10:51:03.938Z,101718.70
2023-05-08T10:53:40.307Z,101719.12
2023-05-08T10:56:08.517Z,101715.67
2023-05-08T10:58:37.884Z,101714.63
2023-05-08T11:01:12.776Z,101716.47
2023-05-08T11:03:46.843Z,101718.07
2023-05-08T11:06:15.612Z,101707.79
2023-05-08T11:08:46.430Z,101705.55
2023-05-08T11:11:30.664Z,101711.78
2023-05-08T11:14:10.340Z,101709.45
2023-05-08T11:17:22.935Z,101711.46
2023-05-08T11:20:02.411Z,101710.38
2023-05-08T11:22:32.764Z,101710.52
2023-05-08T11:25:04.104Z,101701.50
2023-05-08T11:27:39.166Z,101711.79
2023-05-08T11:30:40.670Z,101700.34
2023-05-08T11:33:09.592Z,101704.34
2023-05-08T11:36:14.309Z,101692.39
2023-05-08T11:38:44.739Z,101683.98
2023-05-08T11:41:23.743Z,101689.05
2023-05-08T11:44:04.030Z,101697.02
2023-05-08T11:47:02.929Z,101694.89
2023-05-08T11:49:31.953Z,101678.65
2023-05-08T11:52:00.256Z,101671.98
2023-05-08T11:54:31.698Z,101669.91
2023-05-08T11:57:00.026Z,101673.41
2023-05-08T11:59:28.245Z,101675.27
2023-05-08T12:02:07.885Z,101673.47
2023-05-08T12:04:47.124Z,101677.36
2023-05-08T12:07:15.770Z,101679.27
2023-05-08T12:09:43.852Z,101682.17
2023-05-08T12:12:13.061Z,101671.79
2023-05-08T12:14:41.223Z,101657.62
2023-05-08T12:17:10.139Z,101659.20
2023-05-08T12:19:38.979Z,101660.77
2023-05-08T12:22:08.927Z,101665.32
2023-05-08T12:24:37.116Z,101653.63
2023-05-08T12:27:05.267Z,101654.98
2023-05-08T12:29:36.313Z,101653.32
2023-05-08T12:32:05.020Z,101646.68
2023-05-08T12:34:33.301Z,101645.12
2023-05-08T12:37:03.124Z,101643.36
2023-05-08T12:39:36.405Z,101640.13
2023-05-08T12:42:04.678Z,101638.81
2023-05-08T12:44:32.722Z,101639.14
2023-05-08T12:47:00.942Z,101640.73
2023-05-08T12:49:31.517Z,101633.70
2023-05-08T12:52:12.698Z,101632.10
2023-05-08T12:54:46.794Z,101634.13
2023-05-08T12:57:17.856Z,101636.02
2023-05-08T12:59:47.142Z,101651.94
2023-05-08T13:02:18.080Z,101649.79
2023-05-08T13:04:47.052Z,101644.91
2023-05-08T13:07:15.436Z,101642.39
2023-05-08T13:10:00.342Z,101641.67
2023-05-08T13:12:29.236Z,101641.98
2023-05-08T13:14:57.394Z,101632.98
2023-05-08T13:17:25.703Z,101640.80
2023-05-08T13:19:53.975Z,101647.20
2023-05-08T13:22:22.170Z,101647.98
2023-05-08T13:24:50.312Z,101650.85
2023-05-08T13:27:19.008Z,101647.41
2023-05-08T13:29:47.311Z,101646.41
2023-05-08T13:32:15.577Z,101643.39
2023-05-08T13:34:49.662Z,101643.00
2023-05-08T13:37:19.760Z,101636.28
2023-05-08T13:39:49.366Z,101633.30
2023-05-08T13:42:18.397Z,101628.63
2023-05-08T13:44:47.181Z,101620.11
2023-05-08T13:47:16.199Z,101620.23
2023-05-08T13:49:44.785Z,101620.92
2023-05-08T13:52:13.167Z,101632.23
2023-05-08T13:54:41.343Z,101626.23
2023-05-08T13:57:09.739Z,101620.75
2023-05-08T13:59:37.973Z,101614.21
2023-05-08T14:02:07.051Z,101614.97
2023-05-08T14:04:35.950Z,101613.35
2023-05-08T14:07:04.633Z,101604.89
2023-05-08T14:09:34.384Z,101603.92
2023-05-08T14:12:02.748Z,101595.67
2023-05-08T14:14:32.421Z,101593.81
2023-05-08T14:17:02.569Z,101591.91
2023-05-08T14:19:30.709Z,101591.55
2023-05-08T14:21:59.285Z,101589.32
2023-05-08T14:24:28.386Z,101586.70
2023-05-08T14:26:56.529Z,101585.50
2023-05-08T14:29:26.071Z,101592.05
2023-05-08T14:31:54.756Z,101594.39
2023-05-08T14:34:22.907Z,101586.86
2023-05-08T14:36:51.013Z,101584.86
2023-05-08T14:39:20.312Z,101583.14
2023-05-08T14:42:13.710Z,101589.16
2023-05-08T14:44:37.061Z,101586.09
2023-05-08T14:47:05.392Z,101585.66
2023-05-08T14:52:22.517Z,101575.56
2023-05-08T14:54:50.741Z,101583.24
2023-05-08T14:57:20.220Z,101585.52
2023-05-08T14:59:55.118Z,101585.16
2023-05-08T15:02:24.509Z,101590.08
2023-05-08T15:04:53.030Z,101593.50
2023-05-08T15:07:21.676Z,101596.92
2023-05-08T15:09:50.787Z,101596.73
2023-05-08T15:12:19.007Z,101596.05
2023-05-08T15:14:49.228Z,101579.68
2023-05-08T15:17:18.429Z,101572.52
2023-05-08T15:19:48.414Z,101570.02
2023-05-08T15:22:17.738Z,101569.26
2023-05-08T15:24:45.819Z,101567.52
2023-05-08T15:27:14.693Z,101571.73
2023-05-08T15:29:42.769Z,101571.04
2023-05-08T15:32:11.180Z,101568.27
2023-05-08T15:34:40.609Z,101573.00
2023-05-08T15:37:09.248Z,101574.41
2023-05-08T15:39:37.455Z,101566.30
2023-05-08T15:42:06.736Z,101563.81
2023-05-08T15:44:53.243Z,101563.42
2023-05-08T15:47:23.540Z,101573.95
2023-05-08T15:49:53.893Z,101579.34
2023-05-08T15:52:22.570Z,101582.89
2023-05-08T15:54:51.637Z,101574.54
2023-05-08T15:57:20.812Z,101578.71
2023-05-08T15:59:48.901Z,101579.98
2023-05-08T16:02:18.468Z,101579.11
2023-05-08T16:04:47.322Z,101571.92
2023-05-08T16:07:15.862Z,101567.03
2023-05-08T16:09:45.821Z,101567.14
2023-05-08T16:12:14.214Z,101568.52
2023-05-08T16:14:42.694Z,101566.30
2023-05-08T16:17:11.422Z,101565.23
2023-05-08T16:19:40.356Z,101567.59
2023-05-08T16:22:09.674Z,101570.31
2023-05-08T16:24:39.398Z,101573.91
2023-05-08T16:27:07.474Z,101575.43
2023-05-08T16:29:35.660Z,101579.36
2023-05-08T16:32:04.395Z,101573.66
2023-05-08T16:34:32.462Z,101572.02
2023-05-08T16:37:00.609Z,101562.31
2023-05-08T16:39:29.606Z,101567.27
2023-05-08T16:41:57.795Z,101572.36
2023-05-08T16:44:26.065Z,101572.75
2023-05-08T16:46:54.487Z,101562.60
2023-05-08T16:49:22.697Z,101556.17
2023-05-08T16:51:51.015Z,101553.02
2023-05-08T16:54:20.103Z,101546.91
2023-05-08T16:56:48.728Z,101542.03
2023-05-08T16:59:17.005Z,101540.23
2023-05-08T17:01:46.673Z,101545.66
2023-05-08T17:04:15.597Z,101543.56
2023-05-08T17:06:43.869Z,101539.79
2023-05-08T17:09:12.995Z,101541.06
2023-05-08T17:11:41.625Z,101542.98
2023-05-08T17:14:09.628Z,101543.22
2023-05-08T17:16:38.700Z,101545.41
2023-05-08T17:19:07.345Z,101546.33
2023-05-08T17:21:36.107Z,101549.53
2023-05-08T17:24:06.323Z,101540.46
2023-05-08T17:26:36.372Z,101541.75
2023-05-08T17:29:05.433Z,101550.41
2023-05-08T17:31:33.840Z,101549.96
2023-05-08T17:34:02.097Z,101548.34
2023-05-08T17:36:31.569Z,101550.11
2023-05-08T17:39:00.330Z,101549.75
2023-05-08T17:41:29.478Z,101551.35
2023-05-08T17:43:58.359Z,101554.06
2023-05-08T17:46:28.330Z,101558.98
2023-05-08T17:48:57.839Z,101557.56
2023-05-08T17:51:26.437Z,101562.09
2023-05-08T17:53:54.926Z,101571.38
2023-05-08T17:56:23.613Z,101576.80
2023-05-08T17:58:52.335Z,101579.52
2023-05-08T18:01:20.905Z,101584.40
2023-05-08T18:03:53.350Z,101586.98
2023-05-08T18:06:21.918Z,101586.44
2023-05-08T18:08:50.236Z,101593.52
2023-05-08T18:11:23.402Z,101603.38
2023-05-08T18:13:53.622Z,101604.66
2023-05-08T18:16:22.586Z,101597.35
2023-05-08T18:18:51.130Z,101604.23
2023-05-08T18:21:19.281Z,101606.72
2023-05-08T18:23:47.432Z,101602.95
2023-05-08T18:26:16.492Z,101603.48
2023-05-08T18:28:45.261Z,101608.20
2023-05-08T18:31:13.458Z,101608.59
2023-05-08T18:33:42.329Z,101610.62
2023-05-08T18:36:10.459Z,101611.53
2023-05-08T18:38:38.893Z,101615.00
2023-05-08T18:41:09.768Z,101616.50
2023-05-08T18:43:38.087Z,101616.91
2023-05-08T18:46:13.596Z,101616.42
2023-05-08T18:48:42.187Z,101613.42
2023-05-08T18:51:11.081Z,101612.78
2023-05-08T18:53:39.946Z,101610.83
2023-05-08T18:56:08.146Z,101605.08
2023-05-08T18:58:36.564Z,101605.98
2023-05-08T19:01:05.649Z,101611.37
2023-05-08T19:03:34.609Z,101600.80
2023-05-08T19:06:03.028Z,101607.46
2023-05-08T19:08:31.157Z,101612.70
2023-05-08T19:10:59.342Z,101622.57
2023-05-08T19:13:27.699Z,101627.26
2023-05-08T19:15:56.755Z,101632.80
2023-05-08T19:18:25.131Z,101628.30
2023-05-08T19:20:54.375Z,101634.95
2023-05-08T19:23:23.077Z,101639.45
2023-05-08T19:25:51.157Z,101636.75
2023-05-08T19:28:19.847Z,101637.81
2023-05-08T19:30:48.858Z,101643.04
2023-05-08T19:33:16.965Z,101642.31
2023-05-08T19:35:45.161Z,101640.88
2023-05-08T19:38:14.332Z,101639.08
2023-05-08T19:40:55.660Z,101637.10
2023-05-08T19:43:26.857Z,101640.15
2023-05-08T19:45:55.921Z,101648.23
2023-05-08T19:48:24.735Z,101652.91
2023-05-08T19:50:55.105Z,101652.73
2023-05-08T19:53:23.929Z,101657.95
2023-05-08T19:55:52.144Z,101664.60
2023-05-08T19:58:21.135Z,101662.43
2023-05-08T20:00:51.524Z,101668.35
2023-05-08T20:03:20.500Z,101668.89
2023-05-08T20:05:50.520Z,101669.80
2023-05-08T20:08:19.283Z,101664.04
2023-05-08T20:10:48.410Z,101666.02
2023-05-08T20:13:19.634Z,101665.66
2023-05-08T20:15:48.787Z,101664.58
2023-05-08T20:18:16.860Z,101670.69
2023-05-08T20:20:45.622Z,101682.36
2023-05-08T20:23:13.753Z,101675.89
2023-05-08T20:25:41.836Z,101677.69
2023-05-08T20:28:10.128Z,101679.31
2023-05-08T20:30:38.174Z,101685.78
2023-05-08T20:33:06.579Z,101685.59
2023-05-08T20:35:35.249Z,101685.42
2023-05-08T20:38:03.824Z,101686.33
2023-05-08T20:40:31.920Z,101688.31
2023-05-08T20:43:00.358Z,101693.35
2023-05-08T20:45:28.532Z,101696.58
2023-05-08T20:47:56.625Z,101696.58
2023-05-08T20:50:24.931Z,101699.27
2023-05-08T20:52:53.421Z,101703.05
2023-05-08T20:55:21.722Z,101704.67
2023-05-08T20:57:49.916Z,101706.82
2023-05-08T21:00:18.311Z,101698.92
2023-05-08T21:02:46.611Z,101698.02
2023-05-08T21:05:15.280Z,101702.33
2023-05-08T21:07:43.605Z,101697.48
2023-05-08T21:10:12.348Z,101690.11
2023-05-08T21:12:40.763Z,101686.16
2023-05-08T21:15:08.972Z,101688.48
2023-05-08T21:17:37.417Z,101687.06
2023-05-08T21:20:06.382Z,101686.72
2023-05-08T21:22:34.850Z,101692.10
2023-05-08T21:25:03.146Z,101690.33
2023-05-08T21:27:31.750Z,101693.20
2023-05-08T21:29:59.792Z,101689.61
2023-05-08T21:32:27.708Z,101688.73
2023-05-08T21:34:56.778Z,101686.58
2023-05-08T21:37:25.040Z,101681.52
2023-05-08T21:39:53.123Z,101684.40
2023-05-08T21:42:21.371Z,101686.19
2023-05-08T21:44:49.599Z,101682.98
2023-05-08T21:47:17.636Z,101686.20
2023-05-08T21:49:45.729Z,101684.94
2023-05-08T21:52:14.079Z,101683.52
2023-05-08T21:54:42.781Z,101687.64
2023-05-08T21:57:11.180Z,101692.86
2023-05-08T21:59:39.497Z,101691.98
2023-05-08T22:02:07.793Z,101691.97
2023-05-08T22:04:36.395Z,101688.02
2023-05-08T22:07:05.060Z,101682.81
2023-05-08T22:09:33.128Z,101683.35
2023-05-08T22:12:01.695Z,101685.87
2023-05-08T22:14:29.791Z,101681.20
2023-05-08T22:16:57.958Z,101676.34
2023-05-08T22:19:26.160Z,101679.04
2023-05-08T22:21:54.233Z,101680.13
2023-05-08T22:24:23.591Z,101683.00
2023-05-08T22:26:52.303Z,101683.36
2023-05-08T22:29:20.399Z,101689.27
2023-05-08T22:31:48.629Z,101688.58
2023-05-08T22:34:17.258Z,101688.22
2023-05-08T22:36:45.609Z,101684.81
2023-05-08T22:39:13.751Z,101682.30
2023-05-08T22:41:42.012Z,101677.45
2023-05-08T22:44:11.312Z,101681.77
2023-05-08T22:46:40.009Z,101686.44
2023-05-08T22:49:09.424Z,101684.82
2023-05-08T22:51:37.905Z,101684.29
2023-05-08T22:54:06.066Z,101681.79
2023-05-08T22:56:34.498Z,101680.38
2023-05-08T22:59:02.978Z,101679.85
2023-05-08T23:01:31.155Z,101682.37
2023-05-08T23:03:59.791Z,101684.90
2023-05-08T23:06:28.032Z,101684.91
2023-05-08T23:08:56.670Z,101688.70
2023-05-08T23:11:25.865Z,101688.35
2023-05-08T23:13:54.194Z,101687.30
2023-05-08T23:16:22.309Z,101686.93
2023-05-08T23:18:51.079Z,101687.45
2023-05-08T23:21:19.270Z,101690.88
2023-05-08T23:23:48.063Z,101692.31
2023-05-08T23:26:16.234Z,101692.48
2023-05-08T23:28:44.330Z,101685.51
2023-05-08T23:31:12.590Z,101685.86
2023-05-08T23:33:41.403Z,101679.04
2023-05-08T23:36:10.133Z,101674.02
2023-05-08T23:38:38.166Z,101668.10
2023-05-08T23:41:06.696Z,101654.30
2023-05-08T23:43:35.768Z,101648.91
2023-05-08T23:46:04.286Z,101651.25
2023-05-08T23:48:33.125Z,101660.94
2023-05-08T23:51:01.258Z,101654.11
2023-05-08T23:53:29.760Z,101644.43
2023-05-08T23:55:58.221Z,101635.29
2023-05-08T23:58:26.318Z,101637.63
